createdAt,value
2022-12-31T10:37:26.274Z,18.36
2022-12-31T10:38:26.256Z,18.36
2022-12-31T10:53:49.191Z,18.48
2022-12-31T10:54:49.855Z,18.51
2022-12-31T10:55:49.551Z,18.51
2022-12-31T10:56:49.110Z,18.50
2022-12-31T10:57:49.092Z,18.48
2022-12-31T10:58:49.579Z,18.45
2022-12-31T10:59:49.531Z,18.45
2022-12-31T11:00:49.149Z,18.51
2022-12-31T11:01:50.544Z,18.47
2022-12-31T11:02:49.192Z,18.48
2022-12-31T11:03:49.105Z,18.47
2022-12-31T11:04:49.831Z,18.45
2022-12-31T11:05:49.023Z,18.42
2022-12-31T11:06:48.971Z,18.45
2022-12-31T11:07:49.068Z,18.48
2022-12-31T11:08:48.997Z,18.44
2022-12-31T11:09:49.426Z,18.45
2022-12-31T11:10:49.582Z,18.42
2022-12-31T11:11:48.940Z,18.42
2022-12-31T11:12:49.258Z,18.42
2022-12-31T11:13:48.955Z,18.44
2022-12-31T11:14:48.911Z,18.44
2022-12-31T11:15:50.402Z,18.48
2022-12-31T11:16:48.875Z,18.55
2022-12-31T11:17:48.904Z,18.54
2022-12-31T11:18:49.900Z,18.52
2022-12-31T11:19:48.848Z,18.62
2022-12-31T11:20:48.836Z,18.62
2022-12-31T11:21:48.828Z,18.63
2022-12-31T11:22:49.635Z,18.60
2022-12-31T11:23:48.840Z,18.60
2022-12-31T11:24:48.786Z,18.57
2022-12-31T11:25:48.787Z,18.54
2022-12-31T11:26:49.389Z,18.51
2022-12-31T11:27:49.448Z,18.51
2022-12-31T11:28:48.784Z,18.52
2022-12-31T11:29:48.731Z,18.54
2022-12-31T11:30:49.613Z,18.52
2022-12-31T11:31:48.924Z,18.48
2022-12-31T11:32:48.699Z,18.47
2022-12-31T11:33:50.544Z,18.45
2022-12-31T11:34:49.293Z,18.41
2022-12-31T11:35:48.675Z,18.42
2022-12-31T11:36:48.674Z,18.39
2022-12-31T11:37:48.682Z,18.37
2022-12-31T11:38:48.861Z,18.42
2022-12-31T11:39:49.442Z,18.44
2022-12-31T11:40:49.095Z,18.42
2022-12-31T11:41:48.632Z,18.39
2022-12-31T11:42:48.635Z,18.39
2022-12-31T11:43:48.607Z,18.37
2022-12-31T11:44:48.615Z,18.37
2022-12-31T11:45:50.728Z,18.32
2022-12-31T11:46:48.922Z,18.29
2022-12-31T11:48:27.927Z,18.23
2022-12-31T11:48:49.547Z,18.23
2022-12-31T11:49:49.029Z,18.20
2022-12-31T11:50:48.860Z,18.18
2022-12-31T11:51:50.607Z,18.20
2022-12-31T11:52:48.484Z,18.20
2022-12-31T11:53:48.852Z,18.18
2022-12-31T11:54:48.489Z,18.14
2022-12-31T11:55:48.789Z,18.12
2022-12-31T11:56:48.437Z,18.11
2022-12-31T11:57:48.467Z,18.08
2022-12-31T11:58:48.464Z,18.11
2022-12-31T11:59:48.430Z,18.10
2022-12-31T12:00:48.412Z,18.08
2022-12-31T12:01:48.782Z,18.12
2022-12-31T12:02:48.426Z,18.15
2022-12-31T12:03:48.441Z,18.12
2022-12-31T12:04:48.380Z,18.11
2022-12-31T12:05:48.366Z,18.10
2022-12-31T12:06:48.647Z,18.14
2022-12-31T12:07:48.573Z,18.15
2022-12-31T12:08:48.343Z,18.11
2022-12-31T12:09:48.301Z,18.14
2022-12-31T12:10:48.324Z,18.12
2022-12-31T12:11:48.953Z,18.10
2022-12-31T12:12:48.263Z,18.12
2022-12-31T12:13:48.272Z,18.17
2022-12-31T12:14:48.464Z,18.15
2022-12-31T12:15:48.312Z,18.14
2022-12-31T12:16:48.232Z,18.14
2022-12-31T12:17:48.251Z,18.08
2022-12-31T12:18:48.920Z,18.07
2022-12-31T12:19:48.196Z,18.08
2022-12-31T12:20:48.200Z,18.11
2022-12-31T12:21:48.181Z,18.12
2022-12-31T12:22:49.608Z,18.11
2022-12-31T12:23:48.867Z,18.11
2022-12-31T12:24:48.165Z,18.11
2022-12-31T12:25:48.398Z,18.11
2022-12-31T12:26:48.154Z,18.12
2022-12-31T12:27:48.125Z,18.18
2022-12-31T12:28:49.050Z,18.18
2022-12-31T12:29:48.091Z,18.18
2022-12-31T12:30:48.320Z,18.21
2022-12-31T12:31:48.073Z,18.23
2022-12-31T12:32:48.102Z,18.27
2022-12-31T12:33:48.458Z,18.30
2022-12-31T12:34:50.148Z,18.35
2022-12-31T12:35:48.409Z,18.36
2022-12-31T12:36:49.382Z,18.39
2022-12-31T12:37:48.027Z,18.42
2022-12-31T12:38:48.193Z,18.44
2022-12-31T12:39:47.991Z,18.39
2022-12-31T12:40:47.956Z,18.44
2022-12-31T12:41:47.965Z,18.47
2022-12-31T12:42:47.934Z,18.45
2022-12-31T12:43:48.124Z,18.47
2022-12-31T12:44:48.376Z,18.50
2022-12-31T12:45:52.093Z,18.50
2022-12-31T12:46:48.610Z,18.51
2022-12-31T12:47:47.901Z,18.48
2022-12-31T12:48:47.922Z,18.54
2022-12-31T12:49:48.375Z,18.54
2022-12-31T12:50:48.110Z,18.57
2022-12-31T12:51:47.932Z,18.54
2022-12-31T12:52:47.885Z,18.54
2022-12-31T12:53:48.963Z,18.55
2022-12-31T12:54:47.813Z,18.57
2022-12-31T12:55:48.187Z,18.55
2022-12-31T12:56:48.157Z,18.54
2022-12-31T12:57:47.786Z,18.54
2022-12-31T12:58:47.793Z,18.58
2022-12-31T12:59:47.788Z,18.57
2022-12-31T13:00:48.431Z,18.57
2022-12-31T13:01:47.984Z,18.52
2022-12-31T13:02:48.131Z,18.50
2022-12-31T13:04:07.686Z,18.48
2022-12-31T13:04:48.712Z,18.48
2022-12-31T13:05:47.688Z,18.44
2022-12-31T13:06:48.409Z,18.41
2022-12-31T13:07:47.831Z,18.37
2022-12-31T13:08:47.730Z,18.35
2022-12-31T13:09:47.985Z,18.30
2022-12-31T13:10:47.673Z,18.27
2022-12-31T13:11:47.641Z,18.18
2022-12-31T13:13:22.718Z,18.15
2022-12-31T13:13:48.672Z,18.12
2022-12-31T13:14:47.629Z,18.05
2022-12-31T13:15:47.975Z,18.00
2022-12-31T13:16:47.647Z,17.89
2022-12-31T13:17:53.333Z,17.72
2022-12-31T13:18:48.659Z,17.68
2022-12-31T13:19:48.542Z,17.68
2022-12-31T13:20:47.571Z,17.64
2022-12-31T13:21:48.115Z,17.66
2022-12-31T13:22:47.515Z,17.70
2022-12-31T13:23:47.504Z,17.71
2022-12-31T13:24:47.512Z,17.66
2022-12-31T13:25:47.488Z,17.64
2022-12-31T13:26:47.536Z,17.64
2022-12-31T13:27:47.506Z,17.71
2022-12-31T13:28:47.967Z,17.70
2022-12-31T13:29:48.196Z,17.64
2022-12-31T13:30:47.421Z,17.63
2022-12-31T13:31:47.458Z,17.62
2022-12-31T13:32:47.835Z,17.64
2022-12-31T13:33:47.589Z,17.70
2022-12-31T13:34:47.385Z,17.71
2022-12-31T13:35:47.365Z,17.71
2022-12-31T13:36:47.387Z,17.77
2022-12-31T13:37:47.649Z,17.77
2022-12-31T13:38:48.359Z,17.78
2022-12-31T13:39:48.030Z,17.77
2022-12-31T13:40:47.766Z,17.78
2022-12-31T13:41:47.749Z,17.82
2022-12-31T13:42:47.296Z,17.81
2022-12-31T13:43:50.850Z,17.86
2022-12-31T13:44:47.673Z,17.84
2022-12-31T13:45:47.260Z,17.89
2022-12-31T13:46:48.093Z,17.92
2022-12-31T13:47:47.964Z,17.90
2022-12-31T13:48:47.264Z,17.90
2022-12-31T13:49:47.212Z,17.87
2022-12-31T13:50:47.451Z,17.84
2022-12-31T13:51:47.200Z,17.81
2022-12-31T13:52:47.180Z,17.82
2022-12-31T13:53:47.193Z,17.84
2022-12-31T13:54:47.164Z,17.89
2022-12-31T13:55:50.798Z,17.90
2022-12-31T13:56:48.126Z,17.95
2022-12-31T13:57:47.878Z,17.95
2022-12-31T13:58:47.166Z,17.95
2022-12-31T13:59:47.105Z,17.93
2022-12-31T14:00:47.549Z,17.92
2022-12-31T14:01:47.166Z,17.93
2022-12-31T14:02:47.166Z,17.92
2022-12-31T14:03:47.086Z,17.87
2022-12-31T14:04:47.170Z,17.86
2022-12-31T14:05:47.089Z,17.81
2022-12-31T14:06:47.113Z,17.77
2022-12-31T14:07:47.308Z,17.77
2022-12-31T14:10:02.089Z,17.81
2022-12-31T14:11:00.335Z,17.79
2022-12-31T14:12:00.963Z,17.79
2022-12-31T14:12:59.699Z,17.75
2022-12-31T14:13:59.268Z,17.74
2022-12-31T14:15:01.234Z,17.72
2022-12-31T14:16:11.356Z,17.75
2022-12-31T14:17:58.232Z,17.74
2022-12-31T14:18:58.135Z,17.72
2022-12-31T14:19:58.113Z,17.74
2022-12-31T14:20:58.104Z,17.70
2022-12-31T14:23:49.342Z,17.74
2022-12-31T14:24:49.310Z,17.79
2022-12-31T14:25:49.310Z,17.78
2022-12-31T14:26:49.311Z,17.82
2022-12-31T14:27:49.283Z,17.89
2022-12-31T14:28:49.286Z,17.90
2022-12-31T14:29:49.266Z,17.90
2022-12-31T14:30:49.241Z,17.87
2022-12-31T14:31:49.371Z,17.86
2022-12-31T14:32:49.225Z,17.89
2022-12-31T14:33:49.224Z,17.89
2022-12-31T14:34:49.203Z,17.86
2022-12-31T14:35:49.209Z,17.84
2022-12-31T14:36:49.177Z,17.86
2022-12-31T14:37:49.189Z,17.89
2022-12-31T14:38:49.164Z,17.92
2022-12-31T14:39:49.154Z,17.93
2022-12-31T14:40:49.136Z,17.90
2022-12-31T14:41:49.193Z,17.87
2022-12-31T14:42:49.130Z,17.84
2022-12-31T14:43:49.140Z,17.79
2022-12-31T14:44:49.095Z,17.77
2022-12-31T14:45:49.109Z,17.77
2022-12-31T14:46:49.068Z,17.77
2022-12-31T14:47:49.079Z,17.74
2022-12-31T14:48:49.061Z,17.75
2022-12-31T14:49:49.051Z,17.74
2022-12-31T14:50:49.035Z,17.70
2022-12-31T14:51:49.031Z,17.64
2022-12-31T14:52:49.113Z,17.64
2022-12-31T14:53:49.001Z,17.63
2022-12-31T14:54:48.979Z,17.58
2022-12-31T14:55:48.979Z,17.54
2022-12-31T14:56:48.974Z,17.56
2022-12-31T14:58:26.392Z,17.52
2022-12-31T14:58:50.015Z,17.48
2022-12-31T14:59:48.933Z,17.44
2022-12-31T15:00:48.995Z,17.43
2022-12-31T15:01:49.010Z,17.36
2022-12-31T15:02:49.431Z,17.33
2022-12-31T15:03:48.897Z,17.38
2022-12-31T15:04:48.895Z,17.33
2022-12-31T15:05:48.865Z,17.34
2022-12-31T15:06:48.860Z,17.31
2022-12-31T15:07:48.849Z,17.31
2022-12-31T15:08:48.851Z,17.37
2022-12-31T15:09:48.828Z,17.38
2022-12-31T15:10:48.823Z,17.34
2022-12-31T15:11:48.805Z,17.33
2022-12-31T15:12:48.797Z,17.38
2022-12-31T15:13:48.822Z,17.34
2022-12-31T15:14:48.775Z,17.28
2022-12-31T15:15:48.759Z,17.31
2022-12-31T15:16:48.774Z,17.31
2022-12-31T15:17:48.736Z,17.30
2022-12-31T15:18:48.758Z,17.23
2022-12-31T15:19:48.730Z,17.28
2022-12-31T15:20:48.701Z,17.28
2022-12-31T15:21:48.690Z,17.23
2022-12-31T15:22:48.744Z,17.18
2022-12-31T15:23:48.678Z,17.19
2022-12-31T15:24:48.660Z,17.22
2022-12-31T15:25:48.645Z,17.22
2022-12-31T15:26:48.638Z,17.22
2022-12-31T15:27:48.642Z,17.23
2022-12-31T15:28:48.635Z,17.21
2022-12-31T15:29:48.603Z,17.15
2022-12-31T15:30:48.679Z,17.15
2022-12-31T15:31:48.578Z,17.21
2022-12-31T15:32:48.583Z,17.26
2022-12-31T15:33:48.562Z,17.23
2022-12-31T15:34:48.695Z,17.25
2022-12-31T15:35:48.535Z,17.23
2022-12-31T15:36:48.519Z,17.18
2022-12-31T15:37:48.525Z,17.19
2022-12-31T15:38:48.514Z,17.23
2022-12-31T15:39:48.484Z,17.25
2022-12-31T15:40:48.491Z,17.28
2022-12-31T15:42:35.466Z,17.36
2022-12-31T15:42:50.412Z,17.31
2022-12-31T15:43:48.455Z,17.26
2022-12-31T15:44:48.451Z,17.25
2022-12-31T15:45:48.545Z,17.25
2022-12-31T15:46:48.415Z,17.30
2022-12-31T15:47:48.410Z,17.22
2022-12-31T15:48:52.272Z,17.16
2022-12-31T15:49:48.379Z,17.11
2022-12-31T15:50:48.393Z,17.04
2022-12-31T15:51:48.381Z,17.07
2022-12-31T15:52:48.349Z,17.06
2022-12-31T15:53:48.339Z,17.07
2022-12-31T15:54:48.348Z,17.14
2022-12-31T15:55:48.308Z,17.11
2022-12-31T15:56:48.300Z,17.08
2022-12-31T15:57:48.283Z,17.08
2022-12-31T15:58:48.294Z,17.03
2022-12-31T15:59:48.260Z,17.00
2022-12-31T16:00:48.252Z,17.03
2022-12-31T16:01:48.284Z,16.98
2022-12-31T16:02:48.329Z,17.01
2022-12-31T16:03:48.229Z,17.00
2022-12-31T16:04:48.213Z,16.98
2022-12-31T16:05:48.223Z,17.11
2022-12-31T16:06:50.988Z,17.15
2022-12-31T16:07:48.179Z,17.12
2022-12-31T16:08:48.183Z,17.04
2022-12-31T16:09:48.164Z,17.04
2022-12-31T16:10:48.171Z,17.01
2022-12-31T16:11:48.135Z,17.00
2022-12-31T16:12:48.124Z,16.98
2022-12-31T16:13:48.119Z,17.04
2022-12-31T16:14:48.105Z,17.08
2022-12-31T16:15:48.114Z,17.11
2022-12-31T16:16:48.076Z,17.01
2022-12-31T16:17:48.069Z,17.00
2022-12-31T16:18:48.095Z,17.00
2022-12-31T16:19:48.046Z,16.98
2022-12-31T16:20:48.115Z,17.01
2022-12-31T16:21:48.025Z,17.00
2022-12-31T16:22:48.038Z,17.06
2022-12-31T16:23:48.011Z,17.01
2022-12-31T16:25:28.494Z,17.08
2022-12-31T16:25:48.972Z,17.01
2022-12-31T16:26:47.990Z,16.93
2022-12-31T16:27:47.956Z,16.93
2022-12-31T16:28:47.948Z,16.93
2022-12-31T16:29:53.978Z,17.03
2022-12-31T16:30:48.953Z,17.01
2022-12-31T16:31:47.914Z,16.97
2022-12-31T16:32:47.922Z,16.91
2022-12-31T16:33:47.891Z,16.93
2022-12-31T16:34:47.881Z,16.93
2022-12-31T16:35:47.864Z,16.97
2022-12-31T16:36:47.852Z,16.86
2022-12-31T16:37:47.844Z,16.91
2022-12-31T16:38:47.850Z,16.94
2022-12-31T16:39:47.812Z,16.91
2022-12-31T16:40:47.804Z,16.85
2022-12-31T16:41:47.811Z,16.88
2022-12-31T16:42:47.795Z,16.91
2022-12-31T16:43:47.789Z,16.83
2022-12-31T16:44:47.776Z,16.73
2022-12-31T16:45:47.743Z,16.66
2022-12-31T16:46:47.783Z,16.70
2022-12-31T16:47:47.726Z,16.71
2022-12-31T16:48:47.740Z,16.82
2022-12-31T16:49:47.694Z,16.78
2022-12-31T16:50:47.696Z,16.68
2022-12-31T16:51:47.688Z,16.70
2022-12-31T16:52:47.675Z,16.75
2022-12-31T16:53:47.671Z,16.78
2022-12-31T16:54:47.646Z,16.73
2022-12-31T16:55:47.637Z,16.75
2022-12-31T16:56:47.628Z,16.81
2022-12-31T16:57:47.606Z,16.78
2022-12-31T16:58:47.677Z,16.68
2022-12-31T16:59:47.607Z,16.70
2022-12-31T17:00:47.578Z,16.70
2022-12-31T17:01:47.654Z,16.66
2022-12-31T17:02:47.717Z,16.75
2022-12-31T17:03:47.569Z,16.70
2022-12-31T17:04:55.115Z,16.66
2022-12-31T17:05:48.519Z,16.60
2022-12-31T17:06:47.511Z,16.64
2022-12-31T17:07:47.499Z,16.63
2022-12-31T17:08:47.510Z,16.57
2022-12-31T17:09:47.471Z,16.64
2022-12-31T17:10:47.470Z,16.67
2022-12-31T17:11:47.461Z,16.70
2022-12-31T17:13:25.632Z,16.64
2022-12-31T17:13:48.451Z,16.58
2022-12-31T17:14:47.431Z,16.56
2022-12-31T17:15:47.482Z,16.56
2022-12-31T17:16:47.411Z,16.56
2022-12-31T17:17:47.404Z,16.50
2022-12-31T17:18:47.392Z,16.50
2022-12-31T17:19:47.380Z,16.45
2022-12-31T17:20:47.396Z,16.49
2022-12-31T17:21:47.355Z,16.58
2022-12-31T17:22:47.361Z,16.61
2022-12-31T17:23:47.333Z,16.56
2022-12-31T17:24:47.318Z,16.53
2022-12-31T17:25:47.304Z,16.53
2022-12-31T17:26:47.285Z,16.50
2022-12-31T17:27:47.298Z,16.49
2022-12-31T17:28:47.290Z,16.48
2022-12-31T17:29:47.255Z,16.46
2022-12-31T17:30:47.245Z,16.39
2022-12-31T17:31:47.301Z,16.43
2022-12-31T17:32:47.264Z,16.41
2022-12-31T17:33:47.230Z,16.43
2022-12-31T17:34:47.214Z,16.48
2022-12-31T17:35:47.211Z,16.49
2022-12-31T17:36:47.180Z,16.46
2022-12-31T17:37:47.181Z,16.49
2022-12-31T17:38:47.177Z,16.46
2022-12-31T17:39:47.144Z,16.41
2022-12-31T17:40:51.544Z,16.41
2022-12-31T17:41:48.130Z,16.49
2022-12-31T17:42:47.123Z,16.58
2022-12-31T17:43:47.122Z,16.61
2022-12-31T17:44:47.100Z,16.53
2022-12-31T17:45:47.095Z,16.46
2022-12-31T17:46:47.094Z,16.43
2022-12-31T17:47:47.084Z,16.42
2022-12-31T17:48:47.060Z,16.41
2022-12-31T17:49:47.091Z,16.41
2022-12-31T17:50:47.031Z,16.41
2022-12-31T17:51:47.845Z,16.42
2022-12-31T17:52:47.022Z,16.46
2022-12-31T17:53:47.012Z,16.58
2022-12-31T17:54:46.992Z,16.53
2022-12-31T17:55:47.003Z,16.53
2022-12-31T17:56:46.983Z,16.58
2022-12-31T17:57:46.962Z,16.49
2022-12-31T17:58:46.955Z,16.39
2022-12-31T17:59:47.034Z,16.46
2022-12-31T18:00:46.956Z,16.48
2022-12-31T18:01:47.025Z,16.38
2022-12-31T18:02:46.933Z,16.28
2022-12-31T18:03:46.904Z,16.34
2022-12-31T18:04:46.886Z,16.43
2022-12-31T18:05:46.915Z,16.39
2022-12-31T18:06:46.906Z,16.41
2022-12-31T18:07:46.855Z,16.38
2022-12-31T18:08:46.848Z,16.35
2022-12-31T18:09:46.826Z,16.30
2022-12-31T18:10:46.841Z,16.28
2022-12-31T18:11:46.820Z,16.23
2022-12-31T18:12:46.796Z,16.15
2022-12-31T18:13:46.832Z,16.11
2022-12-31T18:14:46.778Z,16.15
2022-12-31T18:15:46.778Z,16.17
2022-12-31T18:16:46.787Z,16.09
2022-12-31T18:17:46.750Z,16.07
2022-12-31T18:18:46.738Z,16.14
2022-12-31T18:20:04.281Z,16.14
2022-12-31T18:20:47.715Z,16.11
2022-12-31T18:21:46.698Z,16.08
2022-12-31T18:22:46.702Z,16.05
2022-12-31T18:23:46.709Z,16.02
2022-12-31T18:24:46.670Z,16.02
2022-12-31T18:26:16.913Z,16.11
2022-12-31T18:27:16.910Z,16.05
2022-12-31T18:28:16.960Z,16.04
2022-12-31T18:29:16.894Z,16.05
2022-12-31T18:30:16.875Z,16.00
2022-12-31T18:31:16.905Z,16.04
2022-12-31T18:32:16.852Z,16.07
2022-12-31T18:33:16.825Z,16.07
2022-12-31T18:34:17.017Z,16.02
2022-12-31T18:35:48.688Z,16.01
2022-12-31T18:36:17.788Z,16.05
2022-12-31T18:37:21.699Z,16.01
2022-12-31T18:38:17.773Z,16.05
2022-12-31T18:39:16.781Z,16.01
2022-12-31T18:40:16.748Z,16.02
2022-12-31T18:41:16.760Z,16.04
2022-12-31T18:42:16.728Z,16.12
2022-12-31T18:43:16.728Z,16.12
2022-12-31T18:44:16.735Z,16.05
2022-12-31T18:45:16.700Z,16.04
2022-12-31T18:46:16.808Z,16.04
2022-12-31T18:47:16.689Z,16.01
2022-12-31T18:48:16.668Z,15.97
2022-12-31T18:49:16.671Z,15.94
2022-12-31T18:50:16.661Z,16.04
2022-12-31T18:51:16.652Z,16.23
2022-12-31T18:52:16.628Z,16.14
2022-12-31T18:53:16.667Z,16.04
2022-12-31T18:54:16.639Z,16.02
2022-12-31T18:55:16.592Z,15.97
2022-12-31T18:56:16.624Z,16.01
2022-12-31T18:57:16.598Z,16.02
2022-12-31T18:58:16.563Z,16.02
2022-12-31T18:59:16.562Z,16.01
2022-12-31T19:00:16.550Z,16.00
2022-12-31T19:01:16.641Z,16.04
2022-12-31T19:02:16.619Z,15.96
2022-12-31T19:03:16.568Z,16.02
2022-12-31T19:04:21.305Z,16.00
2022-12-31T19:05:17.476Z,16.04
2022-12-31T19:06:16.482Z,16.02
2022-12-31T19:07:16.456Z,16.01
2022-12-31T19:08:16.514Z,16.08
2022-12-31T19:09:43.394Z,16.14
2022-12-31T19:10:17.426Z,16.08
2022-12-31T19:11:16.416Z,16.01
2022-12-31T19:12:16.407Z,16.02
2022-12-31T19:13:16.419Z,16.02
2022-12-31T19:14:16.423Z,16.05
2022-12-31T19:15:16.367Z,16.09
2022-12-31T19:16:16.428Z,16.07
2022-12-31T19:17:16.357Z,16.04
2022-12-31T19:18:16.354Z,16.05
2022-12-31T19:19:16.346Z,16.07
2022-12-31T19:20:16.346Z,16.07
2022-12-31T19:21:16.301Z,16.04
2022-12-31T19:22:16.315Z,16.04
2022-12-31T19:23:16.296Z,16.09
2022-12-31T19:24:16.289Z,16.04
2022-12-31T19:25:16.269Z,16.04
2022-12-31T19:26:16.324Z,16.04
2022-12-31T19:27:16.241Z,16.00
2022-12-31T19:28:16.237Z,16.09
2022-12-31T19:29:16.221Z,16.05
2022-12-31T19:30:16.218Z,15.94
2022-12-31T19:31:16.243Z,15.96
2022-12-31T19:32:16.191Z,15.97
2022-12-31T19:33:16.198Z,15.94
2022-12-31T19:34:16.273Z,16.07
2022-12-31T19:35:16.171Z,16.02
2022-12-31T19:36:16.148Z,16.09
2022-12-31T19:37:16.137Z,16.12
2022-12-31T19:38:16.131Z,16.09
2022-12-31T19:39:16.197Z,16.04
2022-12-31T19:40:16.102Z,16.05
2022-12-31T19:41:16.108Z,16.08
2022-12-31T19:42:16.117Z,16.11
2022-12-31T19:43:16.074Z,16.05
2022-12-31T19:44:16.121Z,16.02
2022-12-31T19:45:16.038Z,16.02
2022-12-31T19:46:16.578Z,16.05
2022-12-31T19:47:16.049Z,16.12
2022-12-31T19:48:16.091Z,16.11
2022-12-31T19:49:16.105Z,16.12
2022-12-31T19:50:16.016Z,16.12
2022-12-31T19:51:15.983Z,16.15
2022-12-31T19:52:15.969Z,16.15
2022-12-31T19:53:15.977Z,16.12
2022-12-31T19:54:15.958Z,16.21
2022-12-31T19:55:15.939Z,16.15
2022-12-31T19:56:15.926Z,16.09
2022-12-31T19:57:15.910Z,16.08
2022-12-31T19:58:15.899Z,16.17
2022-12-31T19:59:15.899Z,16.17
2022-12-31T20:00:15.894Z,16.14
2022-12-31T20:01:15.943Z,16.24
2022-12-31T20:02:15.988Z,16.20
2022-12-31T20:03:15.930Z,16.21
2022-12-31T20:04:15.855Z,16.21
2022-12-31T20:05:15.839Z,16.14
2022-12-31T20:06:15.843Z,16.11
2022-12-31T20:07:15.802Z,16.20
2022-12-31T20:08:15.878Z,16.17
2022-12-31T20:09:15.785Z,16.20
2022-12-31T20:10:15.800Z,16.20
2022-12-31T20:11:15.763Z,16.20
2022-12-31T20:12:15.789Z,16.21
2022-12-31T20:13:15.734Z,16.17
2022-12-31T20:14:15.752Z,16.21
2022-12-31T20:15:15.713Z,16.24
2022-12-31T20:16:15.764Z,16.28
2022-12-31T20:17:15.704Z,16.24
2022-12-31T20:18:15.672Z,16.20
2022-12-31T20:19:15.682Z,16.14
2022-12-31T20:20:15.666Z,16.09
2022-12-31T20:21:15.645Z,16.09
2022-12-31T20:22:15.634Z,16.05
2022-12-31T20:23:15.624Z,16.08
2022-12-31T20:24:15.698Z,16.20
2022-12-31T20:25:15.601Z,16.15
2022-12-31T20:26:15.601Z,16.09
2022-12-31T20:27:18.644Z,16.04
2022-12-31T20:28:15.567Z,16.02
2022-12-31T20:29:15.572Z,16.08
2022-12-31T20:30:15.537Z,16.25
2022-12-31T20:31:15.584Z,16.24
2022-12-31T20:32:15.527Z,16.23
2022-12-31T20:33:19.057Z,16.12
2022-12-31T20:34:15.509Z,16.09
2022-12-31T20:35:15.488Z,16.07
2022-12-31T20:36:15.490Z,16.04
2022-12-31T20:37:15.478Z,15.97
2022-12-31T20:38:15.473Z,15.97
2022-12-31T20:39:15.457Z,15.96
2022-12-31T20:40:15.521Z,15.96
2022-12-31T20:41:15.420Z,16.08
2022-12-31T20:42:15.417Z,16.15
2022-12-31T20:43:15.397Z,16.09
2022-12-31T20:44:15.401Z,16.00
2022-12-31T20:45:15.379Z,16.04
2022-12-31T20:46:16.289Z,16.07
2022-12-31T20:47:15.350Z,16.11
2022-12-31T20:48:15.341Z,16.23
2022-12-31T20:49:15.343Z,16.33
2022-12-31T20:50:15.390Z,16.23
2022-12-31T20:51:15.335Z,16.12
2022-12-31T20:52:15.389Z,16.08
2022-12-31T20:53:15.303Z,16.07
2022-12-31T20:54:15.323Z,16.09
2022-12-31T20:55:15.266Z,16.07
2022-12-31T20:56:15.274Z,16.07
2022-12-31T20:57:15.247Z,16.05
2022-12-31T20:58:15.239Z,16.00
2022-12-31T20:59:15.234Z,15.94
2022-12-31T21:00:15.236Z,15.96
2022-12-31T21:01:15.385Z,16.02
2022-12-31T21:02:29.471Z,16.04
2022-12-31T21:03:53.541Z,16.00
2022-12-31T21:04:16.483Z,15.89
2022-12-31T21:05:15.252Z,15.80
2022-12-31T21:06:15.216Z,15.80
2022-12-31T21:07:15.137Z,15.80
2022-12-31T21:08:15.128Z,15.80
2022-12-31T21:09:15.201Z,15.76
2022-12-31T21:10:15.123Z,15.84
2022-12-31T21:11:15.079Z,15.84
2022-12-31T21:12:15.153Z,15.83
2022-12-31T21:13:15.067Z,15.80
2022-12-31T21:14:15.071Z,15.71
2022-12-31T21:15:15.040Z,15.68
2022-12-31T21:16:15.107Z,15.68
2022-12-31T21:17:15.019Z,15.71
2022-12-31T21:18:15.102Z,15.71
2022-12-31T21:19:15.026Z,15.64
2022-12-31T21:20:15.031Z,15.57
2022-12-31T21:21:14.972Z,15.53
2022-12-31T21:22:14.971Z,15.49
2022-12-31T21:23:14.959Z,15.47
2022-12-31T21:24:20.162Z,15.43
2022-12-31T21:25:15.933Z,15.46
2022-12-31T21:26:15.055Z,15.46
2022-12-31T21:27:14.913Z,15.56
2022-12-31T21:28:14.906Z,15.54
2022-12-31T21:29:15.021Z,15.51
2022-12-31T21:30:19.344Z,15.46
2022-12-31T21:31:15.924Z,15.44
2022-12-31T21:32:14.910Z,15.49
2022-12-31T21:33:14.851Z,15.47
2022-12-31T21:34:14.898Z,15.47
2022-12-31T21:36:15.821Z,15.49
2022-12-31T21:37:14.832Z,15.47
2022-12-31T21:38:14.787Z,15.49
2022-12-31T21:39:14.785Z,15.47
2022-12-31T21:40:14.794Z,15.50
2022-12-31T21:41:14.757Z,15.51
2022-12-31T21:42:14.744Z,15.56
2022-12-31T21:43:14.751Z,15.56
2022-12-31T21:44:14.813Z,15.53
2022-12-31T21:45:14.718Z,15.50
2022-12-31T21:46:14.712Z,15.47
2022-12-31T21:47:35.324Z,15.41
2022-12-31T21:48:15.696Z,15.44
2022-12-31T21:49:14.690Z,15.38
2022-12-31T21:50:14.769Z,15.32
2022-12-31T21:51:14.659Z,15.29
2022-12-31T21:52:14.660Z,15.25
2022-12-31T21:53:17.628Z,15.31
2022-12-31T21:54:15.634Z,15.29
2022-12-31T21:55:14.603Z,15.31
2022-12-31T21:56:14.707Z,15.23
2022-12-31T21:57:14.594Z,15.17
2022-12-31T21:58:25.728Z,15.14
2022-12-31T21:59:15.591Z,15.13
2022-12-31T22:00:41.042Z,15.23
2022-12-31T22:01:15.645Z,15.29
2022-12-31T22:02:14.646Z,15.25
2022-12-31T22:03:14.571Z,15.31
2022-12-31T22:04:43.238Z,15.29
2022-12-31T22:05:23.148Z,15.29
2022-12-31T22:06:15.475Z,15.31
2022-12-31T22:07:14.493Z,15.34
2022-12-31T22:08:14.510Z,15.39
2022-12-31T22:09:14.474Z,15.32
2022-12-31T22:10:14.512Z,15.23
2022-12-31T22:11:14.447Z,15.17
2022-12-31T22:12:14.416Z,15.11
2022-12-31T22:13:14.464Z,15.07
2022-12-31T22:14:14.483Z,15.06
2022-12-31T22:15:16.288Z,15.06
2022-12-31T22:16:14.462Z,15.06
2022-12-31T22:17:14.368Z,15.16
2022-12-31T22:18:14.345Z,15.44
2022-12-31T22:19:14.346Z,15.53
2022-12-31T22:20:26.945Z,15.50
2022-12-31T22:21:19.184Z,15.50
2022-12-31T22:22:14.304Z,15.43
2022-12-31T22:23:14.296Z,15.51
2022-12-31T22:24:14.303Z,15.50
2022-12-31T22:25:14.277Z,15.54
2022-12-31T22:26:14.262Z,15.57
2022-12-31T22:27:28.265Z,15.62
2022-12-31T22:29:15.246Z,15.76
2022-12-31T22:30:14.242Z,15.82
2022-12-31T22:31:14.250Z,15.74
2022-12-31T22:32:14.259Z,15.68
2022-12-31T22:33:14.178Z,15.65
2022-12-31T22:34:14.228Z,15.69
2022-12-31T22:35:14.160Z,15.76
2022-12-31T22:36:14.178Z,15.68
2022-12-31T22:37:46.472Z,15.68
2022-12-31T22:38:15.121Z,15.59
2022-12-31T22:39:14.124Z,15.57
2022-12-31T22:40:15.111Z,15.62
2022-12-31T22:41:14.100Z,15.71
2022-12-31T22:42:14.084Z,15.80
2022-12-31T22:43:14.072Z,15.82
2022-12-31T22:44:14.063Z,15.72
2022-12-31T22:45:14.061Z,15.71
2022-12-31T22:46:14.086Z,15.68
2022-12-31T22:47:14.044Z,15.72
2022-12-31T22:48:14.026Z,15.74
2022-12-31T22:49:14.014Z,15.80
2022-12-31T22:50:14.006Z,15.83
2022-12-31T22:51:13.986Z,15.86
2022-12-31T22:52:13.971Z,15.84
2022-12-31T22:53:13.965Z,15.82
2022-12-31T22:54:13.960Z,15.75
2022-12-31T22:55:13.944Z,15.72
2022-12-31T22:56:13.945Z,15.60
2022-12-31T22:57:19.762Z,15.62
2022-12-31T22:58:14.915Z,15.71
2022-12-31T22:59:13.956Z,15.71
2022-12-31T23:00:13.904Z,15.62
2022-12-31T23:01:13.896Z,15.53
2022-12-31T23:02:13.857Z,15.53
2022-12-31T23:03:14.019Z,15.46
2022-12-31T23:04:13.998Z,15.51
2022-12-31T23:05:15.895Z,15.54
2022-12-31T23:06:13.807Z,15.64
2022-12-31T23:07:13.811Z,15.62
2022-12-31T23:08:22.399Z,15.72
2022-12-31T23:09:14.806Z,15.74
2022-12-31T23:10:13.882Z,15.74
2022-12-31T23:11:13.767Z,15.65
2022-12-31T23:12:13.776Z,15.62
2022-12-31T23:13:13.750Z,15.59
2022-12-31T23:14:13.760Z,15.60
2022-12-31T23:15:13.730Z,15.53
2022-12-31T23:16:13.754Z,15.51
2022-12-31T23:17:29.721Z,15.50
2022-12-31T23:18:14.681Z,15.47
2022-12-31T23:19:13.693Z,15.51
2022-12-31T23:20:13.664Z,15.72
2022-12-31T23:21:13.638Z,15.74
2022-12-31T23:22:13.665Z,15.71
2022-12-31T23:23:13.637Z,15.64
2022-12-31T23:24:20.170Z,15.57
2022-12-31T23:25:14.602Z,15.57
2022-12-31T23:26:13.625Z,15.56
2022-12-31T23:27:13.578Z,15.46
2022-12-31T23:28:13.574Z,15.39
2022-12-31T23:29:13.572Z,15.43
2022-12-31T23:30:13.552Z,15.46
2022-12-31T23:31:13.584Z,15.43
2022-12-31T23:32:13.583Z,15.39
2022-12-31T23:33:13.508Z,15.39
2022-12-31T23:34:13.541Z,15.49
2022-12-31T23:35:13.565Z,15.46
2022-12-31T23:36:13.519Z,15.43
2022-12-31T23:37:13.537Z,15.41
2022-12-31T23:38:13.503Z,15.36
2022-12-31T23:39:13.496Z,15.36
2022-12-31T23:40:20.653Z,15.44
2022-12-31T23:41:14.416Z,15.34
2022-12-31T23:42:13.477Z,15.31
2022-12-31T23:43:13.450Z,15.31
2022-12-31T23:44:13.422Z,15.32
2022-12-31T23:45:13.377Z,15.38
2022-12-31T23:46:13.460Z,15.36
2022-12-31T23:47:13.360Z,15.38
2022-12-31T23:48:13.496Z,15.50
2022-12-31T23:49:13.351Z,15.44
2022-12-31T23:50:13.328Z,15.51